sensor_id;sensor_type;location;lat;lon;timestamp;temperature;humidity
21149;DHT22;10732;51.472;6.466;2023-06-26T00:01:50;22.00;99.90
21149;DHT22;10732;51.472;6.466;2023-06-26T00:04:15;21.90;99.90
21149;DHT22;10732;51.472;6.466;2023-06-26T00:06:41;21.90;1.00
21149;DHT22;10732;51.472;6.466;2023-06-26T00:09:07;21.90;1.00
21149;DHT22;10732;51.472;6.466;2023-06-26T00:11:33;21.80;1.00
21149;DHT22;10732;51.472;6.466;2023-06-26T00:14:02;21.70;1.00
21149;DHT22;10732;51.472;6.466;2023-06-26T00:16:27;21.70;1.00
21149;DHT22;10732;51.472;6.466;2023-06-26T00:18:53;21.60;99.90
21149;DHT22;10732;51.472;6.466;2023-06-26T00:21:19;21.60;99.90
21149;DHT22;10732;51.472;6.466;2023-06-26T00:23:45;21.50;1.00
21149;DHT22;10732;51.472;6.466;2023-06-26T00:26:11;21.50;1.00
21149;DHT22;10732;51.472;6.466;2023-06-26T00:28:37;21.40;1.00
21149;DHT22;10732;51.472;6.466;2023-06-26T00:31:03;21.40;1.00
21149;DHT22;10732;51.472;6.466;2023-06-26T00:33:29;21.30;1.00
21149;DHT22;10732;51.472;6.466;2023-06-26T00:35:54;21.30;99.90
21149;DHT22;10732;51.472;6.466;2023-06-26T00:38:20;21.40;99.90
21149;DHT22;10732;51.472;6.466;2023-06-26T00:40:46;21.50;1.00
21149;DHT22;10732;51.472;6.466;2023-06-26T00:43:12;21.50;99.90
21149;DHT22;10732;51.472;6.466;2023-06-26T00:45:37;21.60;83.60
21149;DHT22;10732;51.472;6.466;2023-06-26T00:48:03;21.60;99.90
21149;DHT22;10732;51.472;6.466;2023-06-26T00:50:29;21.60;99.90
21149;DHT22;10732;51.472;6.466;2023-06-26T00:52:55;21.60;99.90
21149;DHT22;10732;51.472;6.466;2023-06-26T00:55:26;21.60;1.00
21149;DHT22;10732;51.472;6.466;2023-06-26T00:57:51;21.50;1.00
21149;DHT22;10732;51.472;6.466;2023-06-26T01:00:17;21.50;99.90
21149;DHT22;10732;51.472;6.466;2023-06-26T01:02:43;21.50;1.00
21149;DHT22;10732;51.472;6.466;2023-06-26T01:05:09;21.40;99.90
21149;DHT22;10732;51.472;6.466;2023-06-26T01:07:38;21.40;99.90
21149;DHT22;10732;51.472;6.466;2023-06-26T01:10:06;21.40;1.00
21149;DHT22;10732;51.472;6.466;2023-06-26T01:12:36;21.40;1.00
21149;DHT22;10732;51.472;6.466;2023-06-26T01:15:02;21.40;1.00
21149;DHT22;10732;51.472;6.466;2023-06-26T01:17:28;21.50;1.00
21149;DHT22;10732;51.472;6.466;2023-06-26T01:19:59;21.50;1.00
21149;DHT22;10732;51.472;6.466;2023-06-26T01:25:29;21.60;1.00
21149;DHT22;10732;51.472;6.466;2023-06-26T01:27:56;21.70;1.00
21149;DHT22;10732;51.472;6.466;2023-06-26T01:30:22;21.70;99.90
21149;DHT22;10732;51.472;6.466;2023-06-26T01:32:51;21.80;99.90
21149;DHT22;10732;51.472;6.466;2023-06-26T01:35:17;21.80;99.90
21149;DHT22;10732;51.472;6.466;2023-06-26T01:37:42;21.80;99.90
21149;DHT22;10732;51.472;6.466;2023-06-26T01:40:08;21.80;1.00
21149;DHT22;10732;51.472;6.466;2023-06-26T01:42:35;21.80;1.00
21149;DHT22;10732;51.472;6.466;2023-06-26T01:45:13;21.80;99.90
21149;DHT22;10732;51.472;6.466;2023-06-26T01:47:43;21.70;1.00
21149;DHT22;10732;51.472;6.466;2023-06-26T01:50:14;21.60;1.00
21149;DHT22;10732;51.472;6.466;2023-06-26T01:52:46;21.50;99.90
21149;DHT22;10732;51.472;6.466;2023-06-26T01:55:45;21.40;1.00
21149;DHT22;10732;51.472;6.466;2023-06-26T01:58:13;21.30;99.90
21149;DHT22;10732;51.472;6.466;2023-06-26T02:00:40;21.20;99.90
21149;DHT22;10732;51.472;6.466;2023-06-26T02:03:06;21.10;99.90
21149;DHT22;10732;51.472;6.466;2023-06-26T02:05:32;21.20;1.00
21149;DHT22;10732;51.472;6.466;2023-06-26T02:07:58;21.10;99.90
21149;DHT22;10732;51.472;6.466;2023-06-26T02:10:23;21.00;1.00
21149;DHT22;10732;51.472;6.466;2023-06-26T02:12:49;21.00;1.00
21149;DHT22;10732;51.472;6.466;2023-06-26T02:15:15;21.00;1.00
21149;DHT22;10732;51.472;6.466;2023-06-26T02:17:40;20.90;1.00
21149;DHT22;10732;51.472;6.466;2023-06-26T02:20:06;20.90;99.90
21149;DHT22;10732;51.472;6.466;2023-06-26T02:22:33;20.80;99.90
21149;DHT22;10732;51.472;6.466;2023-06-26T02:24:59;20.80;1.00
21149;DHT22;10732;51.472;6.466;2023-06-26T02:27:24;20.70;1.00
21149;DHT22;10732;51.472;6.466;2023-06-26T02:29:50;20.70;1.00
21149;DHT22;10732;51.472;6.466;2023-06-26T02:32:16;20.60;1.00
21149;DHT22;10732;51.472;6.466;2023-06-26T02:34:41;20.60;1.00
21149;DHT22;10732;51.472;6.466;2023-06-26T02:37:07;20.50;1.00
21149;DHT22;10732;51.472;6.466;2023-06-26T02:39:33;20.50;1.00
21149;DHT22;10732;51.472;6.466;2023-06-26T02:41:59;20.50;1.00
21149;DHT22;10732;51.472;6.466;2023-06-26T02:44:25;20.50;99.90
21149;DHT22;10732;51.472;6.466;2023-06-26T02:46:50;20.50;1.00
21149;DHT22;10732;51.472;6.466;2023-06-26T02:49:16;20.50;1.00
21149;DHT22;10732;51.472;6.466;2023-06-26T02:51:42;20.60;99.90
21149;DHT22;10732;51.472;6.466;2023-06-26T02:54:07;20.60;1.00
21149;DHT22;10732;51.472;6.466;2023-06-26T02:56:33;20.60;99.90
21149;DHT22;10732;51.472;6.466;2023-06-26T02:58:58;20.60;1.00
21149;DHT22;10732;51.472;6.466;2023-06-26T03:01:24;20.60;99.90
21149;DHT22;10732;51.472;6.466;2023-06-26T03:03:51;20.70;1.00
21149;DHT22;10732;51.472;6.466;2023-06-26T03:06:16;20.70;99.90
21149;DHT22;10732;51.472;6.466;2023-06-26T03:08:42;20.70;99.90
21149;DHT22;10732;51.472;6.466;2023-06-26T03:11:08;20.70;99.90
21149;DHT22;10732;51.472;6.466;2023-06-26T03:13:35;20.60;1.00
21149;DHT22;10732;51.472;6.466;2023-06-26T03:16:01;20.60;1.00
21149;DHT22;10732;51.472;6.466;2023-06-26T03:18:27;20.60;1.00
21149;DHT22;10732;51.472;6.466;2023-06-26T03:20:53;20.50;99.90
21149;DHT22;10732;51.472;6.466;2023-06-26T03:23:20;20.50;99.90
21149;DHT22;10732;51.472;6.466;2023-06-26T03:25:46;20.50;99.90
21149;DHT22;10732;51.472;6.466;2023-06-26T03:28:11;20.50;1.00
21149;DHT22;10732;51.472;6.466;2023-06-26T03:30:37;20.50;99.90
21149;DHT22;10732;51.472;6.466;2023-06-26T03:33:03;20.40;99.90
21149;DHT22;10732;51.472;6.466;2023-06-26T03:35:28;20.40;99.90
21149;DHT22;10732;51.472;6.466;2023-06-26T03:37:54;20.40;99.90
21149;DHT22;10732;51.472;6.466;2023-06-26T03:40:19;20.30;1.00
21149;DHT22;10732;51.472;6.466;2023-06-26T03:42:45;20.40;24.40
21149;DHT22;10732;51.472;6.466;2023-06-26T03:45:11;20.30;1.00
21149;DHT22;10732;51.472;6.466;2023-06-26T03:47:36;20.40;91.00
21149;DHT22;10732;51.472;6.466;2023-06-26T03:50:02;20.40;1.00
21149;DHT22;10732;51.472;6.466;2023-06-26T03:52:28;20.40;1.00
21149;DHT22;10732;51.472;6.466;2023-06-26T03:54:59;20.40;1.00
21149;DHT22;10732;51.472;6.466;2023-06-26T03:57:25;20.40;99.90
21149;DHT22;10732;51.472;6.466;2023-06-26T03:59:52;20.40;1.00
21149;DHT22;10732;51.472;6.466;2023-06-26T04:02:17;20.50;99.90
21149;DHT22;10732;51.472;6.466;2023-06-26T04:04:43;20.50;90.00
21149;DHT22;10732;51.472;6.466;2023-06-26T04:07:09;20.50;1.00
21149;DHT22;10732;51.472;6.466;2023-06-26T04:09:34;20.60;1.00
21149;DHT22;10732;51.472;6.466;2023-06-26T04:12:00;20.60;1.00
21149;DHT22;10732;51.472;6.466;2023-06-26T04:14:26;20.70;1.00
21149;DHT22;10732;51.472;6.466;2023-06-26T04:16:51;20.70;99.90
21149;DHT22;10732;51.472;6.466;2023-06-26T04:19:17;20.80;99.90
21149;DHT22;10732;51.472;6.466;2023-06-26T04:21:43;20.80;99.90
21149;DHT22;10732;51.472;6.466;2023-06-26T04:24:09;20.90;1.00
21149;DHT22;10732;51.472;6.466;2023-06-26T04:26:34;20.90;99.90
21149;DHT22;10732;51.472;6.466;2023-06-26T04:29:01;20.90;1.00
21149;DHT22;10732;51.472;6.466;2023-06-26T04:31:26;20.90;99.90
21149;DHT22;10732;51.472;6.466;2023-06-26T04:33:52;20.90;99.90
21149;DHT22;10732;51.472;6.466;2023-06-26T04:36:20;20.90;99.90
21149;DHT22;10732;51.472;6.466;2023-06-26T04:38:46;20.90;1.00
21149;DHT22;10732;51.472;6.466;2023-06-26T04:41:13;20.80;1.00
21149;DHT22;10732;51.472;6.466;2023-06-26T04:43:39;20.80;1.00
21149;DHT22;10732;51.472;6.466;2023-06-26T04:46:05;20.80;1.00
21149;DHT22;10732;51.472;6.466;2023-06-26T04:48:32;20.70;1.00
21149;DHT22;10732;51.472;6.466;2023-06-26T04:50:57;20.80;45.90
21149;DHT22;10732;51.472;6.466;2023-06-26T04:53:24;20.90;1.00
21149;DHT22;10732;51.472;6.466;2023-06-26T04:55:50;21.00;1.00
21149;DHT22;10732;51.472;6.466;2023-06-26T04:58:19;21.00;1.00
21149;DHT22;10732;51.472;6.466;2023-06-26T05:00:45;21.10;1.00
21149;DHT22;10732;51.472;6.466;2023-06-26T05:03:12;21.10;1.00
21149;DHT22;10732;51.472;6.466;2023-06-26T05:05:38;21.10;1.00
21149;DHT22;10732;51.472;6.466;2023-06-26T05:08:23;21.10;99.90
21149;DHT22;10732;51.472;6.466;2023-06-26T05:10:49;21.10;1.00
21149;DHT22;10732;51.472;6.466;2023-06-26T05:13:15;21.10;1.00
21149;DHT22;10732;51.472;6.466;2023-06-26T05:15:44;21.20;1.00
21149;DHT22;10732;51.472;6.466;2023-06-26T05:18:10;21.10;1.00
21149;DHT22;10732;51.472;6.466;2023-06-26T05:20:36;21.00;99.90
21149;DHT22;10732;51.472;6.466;2023-06-26T05:23:02;21.10;99.90
21149;DHT22;10732;51.472;6.466;2023-06-26T05:25:30;21.00;99.90
21149;DHT22;10732;51.472;6.466;2023-06-26T05:27:57;20.80;1.00
21149;DHT22;10732;51.472;6.466;2023-06-26T05:30:24;20.90;1.00
21149;DHT22;10732;51.472;6.466;2023-06-26T05:32:51;21.00;1.00
21149;DHT22;10732;51.472;6.466;2023-06-26T05:35:18;21.50;99.90
21149;DHT22;10732;51.472;6.466;2023-06-26T05:37:45;21.40;1.00
21149;DHT22;10732;51.472;6.466;2023-06-26T05:40:12;21.40;1.00
21149;DHT22;10732;51.472;6.466;2023-06-26T05:42:38;21.20;1.00
21149;DHT22;10732;51.472;6.466;2023-06-26T05:45:04;21.40;99.90
21149;DHT22;10732;51.472;6.466;2023-06-26T05:47:30;21.60;99.90
21149;DHT22;10732;51.472;6.466;2023-06-26T05:49:55;21.90;99.90
21149;DHT22;10732;51.472;6.466;2023-06-26T05:52:21;22.70;99.90
21149;DHT22;10732;51.472;6.466;2023-06-26T05:54:47;23.10;99.90
21149;DHT22;10732;51.472;6.466;2023-06-26T05:57:13;22.80;1.00
21149;DHT22;10732;51.472;6.466;2023-06-26T05:59:40;22.30;99.90
21149;DHT22;10732;51.472;6.466;2023-06-26T06:02:06;22.20;1.00
21149;DHT22;10732;51.472;6.466;2023-06-26T06:04:32;22.30;1.00
21149;DHT22;10732;51.472;6.466;2023-06-26T06:06:57;23.30;1.00
21149;DHT22;10732;51.472;6.466;2023-06-26T06:09:23;24.50;1.00
21149;DHT22;10732;51.472;6.466;2023-06-26T06:11:48;24.40;1.00
21149;DHT22;10732;51.472;6.466;2023-06-26T06:14:14;24.90;1.00
21149;DHT22;10732;51.472;6.466;2023-06-26T06:16:39;25.60;99.90
21149;DHT22;10732;51.472;6.466;2023-06-26T06:19:05;26.40;1.00
21149;DHT22;10732;51.472;6.466;2023-06-26T06:21:33;26.60;1.00
21149;DHT22;10732;51.472;6.466;2023-06-26T06:23:58;25.70;99.90
21149;DHT22;10732;51.472;6.466;2023-06-26T06:26:24;25.30;1.00
21149;DHT22;10732;51.472;6.466;2023-06-26T06:28:49;24.60;1.00
21149;DHT22;10732;51.472;6.466;2023-06-26T06:31:15;24.00;99.90
21149;DHT22;10732;51.472;6.466;2023-06-26T06:33:40;23.80;1.00
21149;DHT22;10732;51.472;6.466;2023-06-26T06:36:06;23.90;99.90
21149;DHT22;10732;51.472;6.466;2023-06-26T06:38:31;23.80;99.90
21149;DHT22;10732;51.472;6.466;2023-06-26T06:40:57;24.60;73.10
21149;DHT22;10732;51.472;6.466;2023-06-26T06:43:22;24.80;1.00
21149;DHT22;10732;51.472;6.466;2023-06-26T06:45:48;25.20;1.00
21149;DHT22;10732;51.472;6.466;2023-06-26T06:48:14;25.10;1.00
21149;DHT22;10732;51.472;6.466;2023-06-26T06:50:39;25.90;99.90
21149;DHT22;10732;51.472;6.466;2023-06-26T06:53:05;26.40;99.90
21149;DHT22;10732;51.472;6.466;2023-06-26T06:55:30;27.00;24.10
21149;DHT22;10732;51.472;6.466;2023-06-26T06:57:56;27.30;1.00
21149;DHT22;10732;51.472;6.466;2023-06-26T07:00:21;28.00;1.00
21149;DHT22;10732;51.472;6.466;2023-06-26T07:02:47;28.10;1.00
21149;DHT22;10732;51.472;6.466;2023-06-26T07:05:13;28.40;1.00
21149;DHT22;10732;51.472;6.466;2023-06-26T07:07:39;28.80;99.90
21149;DHT22;10732;51.472;6.466;2023-06-26T07:10:12;29.00;99.90
21149;DHT22;10732;51.472;6.466;2023-06-26T07:12:38;29.30;99.90
21149;DHT22;10732;51.472;6.466;2023-06-26T07:15:05;28.70;99.90
21149;DHT22;10732;51.472;6.466;2023-06-26T07:17:34;28.80;99.90
21149;DHT22;10732;51.472;6.466;2023-06-26T07:20:01;28.60;99.90
21149;DHT22;10732;51.472;6.466;2023-06-26T07:22:30;28.30;99.90
21149;DHT22;10732;51.472;6.466;2023-06-26T07:24:56;28.60;99.90
21149;DHT22;10732;51.472;6.466;2023-06-26T07:27:22;28.50;99.90
21149;DHT22;10732;51.472;6.466;2023-06-26T07:29:47;29.00;99.90
21149;DHT22;10732;51.472;6.466;2023-06-26T07:32:13;29.00;99.90
21149;DHT22;10732;51.472;6.466;2023-06-26T07:34:38;29.00;99.90
21149;DHT22;10732;51.472;6.466;2023-06-26T07:37:04;29.20;99.90
21149;DHT22;10732;51.472;6.466;2023-06-26T07:39:30;30.20;13.80
21149;DHT22;10732;51.472;6.466;2023-06-26T07:41:55;30.30;1.00
21149;DHT22;10732;51.472;6.466;2023-06-26T07:44:21;30.50;1.00
21149;DHT22;10732;51.472;6.466;2023-06-26T07:46:47;31.30;1.00
21149;DHT22;10732;51.472;6.466;2023-06-26T07:49:12;30.80;1.00
21149;DHT22;10732;51.472;6.466;2023-06-26T07:51:38;30.00;1.00
21149;DHT22;10732;51.472;6.466;2023-06-26T07:54:04;29.20;1.00
21149;DHT22;10732;51.472;6.466;2023-06-26T07:56:29;28.00;99.90
21149;DHT22;10732;51.472;6.466;2023-06-26T07:58:55;27.60;99.90
21149;DHT22;10732;51.472;6.466;2023-06-26T08:01:23;27.50;1.00
21149;DHT22;10732;51.472;6.466;2023-06-26T08:03:49;26.70;1.00
21149;DHT22;10732;51.472;6.466;2023-06-26T08:06:14;26.50;1.00
21149;DHT22;10732;51.472;6.466;2023-06-26T08:08:40;26.30;1.00
21149;DHT22;10732;51.472;6.466;2023-06-26T08:11:05;26.40;1.00
21149;DHT22;10732;51.472;6.466;2023-06-26T08:13:31;26.50;1.00
21149;DHT22;10732;51.472;6.466;2023-06-26T08:15:56;26.00;1.00
21149;DHT22;10732;51.472;6.466;2023-06-26T08:18:22;26.00;1.00
21149;DHT22;10732;51.472;6.466;2023-06-26T08:20:48;26.20;1.00
21149;DHT22;10732;51.472;6.466;2023-06-26T08:23:13;26.70;1.00
21149;DHT22;10732;51.472;6.466;2023-06-26T08:25:39;28.10;99.90
21149;DHT22;10732;51.472;6.466;2023-06-26T08:28:04;28.60;99.90
21149;DHT22;10732;51.472;6.466;2023-06-26T08:30:32;28.10;99.90
21149;DHT22;10732;51.472;6.466;2023-06-26T08:32:58;27.70;99.90
21149;DHT22;10732;51.472;6.466;2023-06-26T08:35:23;29.30;99.90
21149;DHT22;10732;51.472;6.466;2023-06-26T08:37:49;30.00;47.70
21149;DHT22;10732;51.472;6.466;2023-06-26T08:40:17;31.30;1.00
21149;DHT22;10732;51.472;6.466;2023-06-26T08:42:44;32.10;1.00
21149;DHT22;10732;51.472;6.466;2023-06-26T08:45:09;32.30;1.00
21149;DHT22;10732;51.472;6.466;2023-06-26T08:47:35;31.90;1.00
21149;DHT22;10732;51.472;6.466;2023-06-26T08:50:08;30.10;1.00
21149;DHT22;10732;51.472;6.466;2023-06-26T08:52:37;28.40;99.90
21149;DHT22;10732;51.472;6.466;2023-06-26T08:55:09;29.00;31.90
21149;DHT22;10732;51.472;6.466;2023-06-26T08:57:36;29.80;1.00
21149;DHT22;10732;51.472;6.466;2023-06-26T09:00:03;30.50;1.00
21149;DHT22;10732;51.472;6.466;2023-06-26T09:02:28;31.00;1.00
21149;DHT22;10732;51.472;6.466;2023-06-26T09:04:54;30.80;1.00
21149;DHT22;10732;51.472;6.466;2023-06-26T09:07:20;31.00;1.00
21149;DHT22;10732;51.472;6.466;2023-06-26T09:09:46;32.30;1.00
21149;DHT22;10732;51.472;6.466;2023-06-26T09:12:11;32.10;1.00
21149;DHT22;10732;51.472;6.466;2023-06-26T09:14:38;32.10;1.00
21149;DHT22;10732;51.472;6.466;2023-06-26T09:17:03;32.40;1.00
21149;DHT22;10732;51.472;6.466;2023-06-26T09:19:29;31.80;1.00
21149;DHT22;10732;51.472;6.466;2023-06-26T09:21:55;31.10;1.00
21149;DHT22;10732;51.472;6.466;2023-06-26T09:24:22;31.70;1.00
21149;DHT22;10732;51.472;6.466;2023-06-26T09:26:48;31.40;1.00
21149;DHT22;10732;51.472;6.466;2023-06-26T09:29:14;30.90;1.00
21149;DHT22;10732;51.472;6.466;2023-06-26T09:31:40;30.40;1.00
21149;DHT22;10732;51.472;6.466;2023-06-26T09:34:06;30.20;1.00
21149;DHT22;10732;51.472;6.466;2023-06-26T09:36:32;30.80;1.00
21149;DHT22;10732;51.472;6.466;2023-06-26T09:39:03;30.60;1.00
21149;DHT22;10732;51.472;6.466;2023-06-26T09:41:43;29.70;1.00
21149;DHT22;10732;51.472;6.466;2023-06-26T09:44:11;29.30;1.00
21149;DHT22;10732;51.472;6.466;2023-06-26T09:46:38;28.70;1.00
21149;DHT22;10732;51.472;6.466;2023-06-26T09:49:05;28.30;1.00
21149;DHT22;10732;51.472;6.466;2023-06-26T09:51:35;27.90;20.40
21149;DHT22;10732;51.472;6.466;2023-06-26T09:54:02;29.20;1.00
21149;DHT22;10732;51.472;6.466;2023-06-26T09:56:28;29.80;1.00
21149;DHT22;10732;51.472;6.466;2023-06-26T09:58:59;29.40;1.00
21149;DHT22;10732;51.472;6.466;2023-06-26T10:01:27;28.70;1.00
21149;DHT22;10732;51.472;6.466;2023-06-26T10:03:53;28.00;1.00
21149;DHT22;10732;51.472;6.466;2023-06-26T10:06:27;27.60;99.90
21149;DHT22;10732;51.472;6.466;2023-06-26T10:08:53;29.20;1.00
21149;DHT22;10732;51.472;6.466;2023-06-26T10:11:21;30.50;1.00
21149;DHT22;10732;51.472;6.466;2023-06-26T10:13:51;31.00;1.00
21149;DHT22;10732;51.472;6.466;2023-06-26T10:16:23;30.10;1.00
21149;DHT22;10732;51.472;6.466;2023-06-26T10:18:53;29.80;1.00
21149;DHT22;10732;51.472;6.466;2023-06-26T10:21:22;30.20;1.00
21149;DHT22;10732;51.472;6.466;2023-06-26T10:23:50;29.90;1.00
21149;DHT22;10732;51.472;6.466;2023-06-26T10:26:18;29.70;1.00
21149;DHT22;10732;51.472;6.466;2023-06-26T10:28:47;30.80;1.00
21149;DHT22;10732;51.472;6.466;2023-06-26T10:31:15;31.40;1.00
21149;DHT22;10732;51.472;6.466;2023-06-26T10:33:41;30.90;1.00
21149;DHT22;10732;51.472;6.466;2023-06-26T10:36:18;29.70;1.00
21149;DHT22;10732;51.472;6.466;2023-06-26T10:38:58;29.30;1.00
21149;DHT22;10732;51.472;6.466;2023-06-26T10:41:25;29.70;1.00
21149;DHT22;10732;51.472;6.466;2023-06-26T10:46:51;30.80;1.00
21149;DHT22;10732;51.472;6.466;2023-06-26T10:49:19;30.40;1.00
21149;DHT22;10732;51.472;6.466;2023-06-26T10:51:49;29.60;1.00
21149;DHT22;10732;51.472;6.466;2023-06-26T10:54:16;28.30;1.00
21149;DHT22;10732;51.472;6.466;2023-06-26T10:56:47;28.20;1.00
21149;DHT22;10732;51.472;6.466;2023-06-26T10:59:20;29.10;1.00
21149;DHT22;10732;51.472;6.466;2023-06-26T11:02:02;29.60;1.00
21149;DHT22;10732;51.472;6.466;2023-06-26T11:04:40;29.00;1.00
21149;DHT22;10732;51.472;6.466;2023-06-26T11:07:25;28.70;1.00
21149;DHT22;10732;51.472;6.466;2023-06-26T11:09:59;29.70;1.00
21149;DHT22;10732;51.472;6.466;2023-06-26T11:15:00;29.90;1.00
21149;DHT22;10732;51.472;6.466;2023-06-26T11:17:26;30.00;1.00
21149;DHT22;10732;51.472;6.466;2023-06-26T11:19:52;30.20;1.00
21149;DHT22;10732;51.472;6.466;2023-06-26T11:22:19;29.10;1.00
21149;DHT22;10732;51.472;6.466;2023-06-26T11:24:45;28.50;1.00
21149;DHT22;10732;51.472;6.466;2023-06-26T11:27:11;28.60;1.00
21149;DHT22;10732;51.472;6.466;2023-06-26T11:29:36;27.70;1.00
21149;DHT22;10732;51.472;6.466;2023-06-26T11:32:04;28.00;1.00
21149;DHT22;10732;51.472;6.466;2023-06-26T11:34:32;28.00;1.00
21149;DHT22;10732;51.472;6.466;2023-06-26T11:36:58;27.70;1.00
21149;DHT22;10732;51.472;6.466;2023-06-26T11:39:26;27.00;1.00
21149;DHT22;10732;51.472;6.466;2023-06-26T11:41:52;27.00;1.00
21149;DHT22;10732;51.472;6.466;2023-06-26T11:44:17;27.30;1.00
21149;DHT22;10732;51.472;6.466;2023-06-26T11:46:47;27.70;1.00
21149;DHT22;10732;51.472;6.466;2023-06-26T11:49:16;28.00;1.00
21149;DHT22;10732;51.472;6.466;2023-06-26T11:51:41;27.60;1.00
21149;DHT22;10732;51.472;6.466;2023-06-26T11:54:08;27.60;1.00
21149;DHT22;10732;51.472;6.466;2023-06-26T11:56:33;27.40;1.00
21149;DHT22;10732;51.472;6.466;2023-06-26T11:59:07;27.30;1.00
21149;DHT22;10732;51.472;6.466;2023-06-26T12:01:36;27.50;1.00
21149;DHT22;10732;51.472;6.466;2023-06-26T12:04:07;27.70;1.00
21149;DHT22;10732;51.472;6.466;2023-06-26T12:06:40;27.70;1.00
21149;DHT22;10732;51.472;6.466;2023-06-26T12:09:09;27.50;1.00
21149;DHT22;10732;51.472;6.466;2023-06-26T12:11:41;27.70;1.00
21149;DHT22;10732;51.472;6.466;2023-06-26T12:14:08;27.70;1.00
21149;DHT22;10732;51.472;6.466;2023-06-26T12:16:35;27.30;1.00
21149;DHT22;10732;51.472;6.466;2023-06-26T12:19:03;26.90;99.90
21149;DHT22;10732;51.472;6.466;2023-06-26T12:24:23;27.10;1.00
21149;DHT22;10732;51.472;6.466;2023-06-26T12:26:52;26.90;1.00
21149;DHT22;10732;51.472;6.466;2023-06-26T12:29:20;26.60;1.00
21149;DHT22;10732;51.472;6.466;2023-06-26T12:31:50;26.60;1.00
21149;DHT22;10732;51.472;6.466;2023-06-26T12:34:27;26.30;1.00
21149;DHT22;10732;51.472;6.466;2023-06-26T12:36:52;26.30;1.00
21149;DHT22;10732;51.472;6.466;2023-06-26T12:39:21;26.40;1.00
21149;DHT22;10732;51.472;6.466;2023-06-26T12:41:53;26.50;99.90
21149;DHT22;10732;51.472;6.466;2023-06-26T12:44:30;26.90;1.00
21149;DHT22;10732;51.472;6.466;2023-06-26T12:47:00;26.80;1.00
21149;DHT22;10732;51.472;6.466;2023-06-26T12:49:30;26.80;1.00
21149;DHT22;10732;51.472;6.466;2023-06-26T12:51:57;26.60;1.00
21149;DHT22;10732;51.472;6.466;2023-06-26T12:54:22;26.30;1.00
21149;DHT22;10732;51.472;6.466;2023-06-26T12:56:48;26.10;1.00
21149;DHT22;10732;51.472;6.466;2023-06-26T12:59:13;26.20;1.00
21149;DHT22;10732;51.472;6.466;2023-06-26T13:01:39;26.10;1.00
21149;DHT22;10732;51.472;6.466;2023-06-26T13:04:05;26.20;1.00
21149;DHT22;10732;51.472;6.466;2023-06-26T13:06:31;26.00;1.00
21149;DHT22;10732;51.472;6.466;2023-06-26T13:08:58;26.00;1.00
21149;DHT22;10732;51.472;6.466;2023-06-26T13:11:23;26.00;1.00
21149;DHT22;10732;51.472;6.466;2023-06-26T13:13:49;26.20;1.00
21149;DHT22;10732;51.472;6.466;2023-06-26T13:16:15;26.30;1.00
21149;DHT22;10732;51.472;6.466;2023-06-26T13:18:41;26.30;1.00
21149;DHT22;10732;51.472;6.466;2023-06-26T13:21:07;25.90;1.00
21149;DHT22;10732;51.472;6.466;2023-06-26T13:23:32;26.10;1.00
21149;DHT22;10732;51.472;6.466;2023-06-26T13:25:58;26.40;1.00
21149;DHT22;10732;51.472;6.466;2023-06-26T13:28:23;26.40;1.00
21149;DHT22;10732;51.472;6.466;2023-06-26T13:30:49;26.30;1.00
21149;DHT22;10732;51.472;6.466;2023-06-26T13:33:15;26.30;1.00
21149;DHT22;10732;51.472;6.466;2023-06-26T13:35:41;26.30;1.00
21149;DHT22;10732;51.472;6.466;2023-06-26T13:38:06;26.30;1.00
21149;DHT22;10732;51.472;6.466;2023-06-26T13:40:32;26.50;1.00
21149;DHT22;10732;51.472;6.466;2023-06-26T13:42:57;26.40;1.00
21149;DHT22;10732;51.472;6.466;2023-06-26T13:45:24;26.50;1.00
21149;DHT22;10732;51.472;6.466;2023-06-26T13:47:50;26.20;1.00
21149;DHT22;10732;51.472;6.466;2023-06-26T13:50:16;26.00;1.00
21149;DHT22;10732;51.472;6.466;2023-06-26T13:52:41;26.00;1.00
21149;DHT22;10732;51.472;6.466;2023-06-26T13:55:07;26.10;1.00
21149;DHT22;10732;51.472;6.466;2023-06-26T13:57:33;25.80;1.00
21149;DHT22;10732;51.472;6.466;2023-06-26T13:59:59;25.70;1.00
21149;DHT22;10732;51.472;6.466;2023-06-26T14:02:24;25.50;1.00
21149;DHT22;10732;51.472;6.466;2023-06-26T14:04:51;25.80;1.00
21149;DHT22;10732;51.472;6.466;2023-06-26T14:07:17;25.50;99.90
21149;DHT22;10732;51.472;6.466;2023-06-26T14:09:42;25.40;1.00
21149;DHT22;10732;51.472;6.466;2023-06-26T14:12:08;25.50;1.00
21149;DHT22;10732;51.472;6.466;2023-06-26T14:14:34;25.70;1.00
21149;DHT22;10732;51.472;6.466;2023-06-26T14:16:59;25.80;1.00
21149;DHT22;10732;51.472;6.466;2023-06-26T14:19:25;26.30;1.00
21149;DHT22;10732;51.472;6.466;2023-06-26T14:21:51;26.40;1.00
21149;DHT22;10732;51.472;6.466;2023-06-26T14:24:17;26.50;99.90
21149;DHT22;10732;51.472;6.466;2023-06-26T14:26:42;26.60;99.90
21149;DHT22;10732;51.472;6.466;2023-06-26T14:29:08;26.70;99.90
21149;DHT22;10732;51.472;6.466;2023-06-26T14:31:34;26.90;99.90
21149;DHT22;10732;51.472;6.466;2023-06-26T14:33:59;26.90;99.90
21149;DHT22;10732;51.472;6.466;2023-06-26T14:36:25;26.60;99.90
21149;DHT22;10732;51.472;6.466;2023-06-26T14:38:52;26.40;99.90
21149;DHT22;10732;51.472;6.466;2023-06-26T14:41:17;26.50;99.90
21149;DHT22;10732;51.472;6.466;2023-06-26T14:43:43;26.40;99.90
21149;DHT22;10732;51.472;6.466;2023-06-26T14:46:10;26.30;99.90
21149;DHT22;10732;51.472;6.466;2023-06-26T14:48:36;26.00;99.90
21149;DHT22;10732;51.472;6.466;2023-06-26T14:51:02;25.80;99.90
21149;DHT22;10732;51.472;6.466;2023-06-26T14:53:27;25.80;99.90
21149;DHT22;10732;51.472;6.466;2023-06-26T14:55:53;25.90;99.90
21149;DHT22;10732;51.472;6.466;2023-06-26T14:58:18;25.90;99.90
21149;DHT22;10732;51.472;6.466;2023-06-26T15:00:44;25.70;99.90
21149;DHT22;10732;51.472;6.466;2023-06-26T15:03:09;26.00;1.00
21149;DHT22;10732;51.472;6.466;2023-06-26T15:05:35;25.90;99.90
21149;DHT22;10732;51.472;6.466;2023-06-26T15:08:00;26.00;1.00
21149;DHT22;10732;51.472;6.466;2023-06-26T15:10:26;25.70;99.90
21149;DHT22;10732;51.472;6.466;2023-06-26T15:12:52;25.60;99.90
21149;DHT22;10732;51.472;6.466;2023-06-26T15:15:18;25.40;1.00
21149;DHT22;10732;51.472;6.466;2023-06-26T15:17:43;25.40;1.00
21149;DHT22;10732;51.472;6.466;2023-06-26T15:20:09;25.60;1.00
21149;DHT22;10732;51.472;6.466;2023-06-26T15:22:35;25.40;1.00
21149;DHT22;10732;51.472;6.466;2023-06-26T15:25:00;25.10;99.90
21149;DHT22;10732;51.472;6.466;2023-06-26T15:27:26;25.00;99.90
21149;DHT22;10732;51.472;6.466;2023-06-26T15:29:51;25.00;1.00
21149;DHT22;10732;51.472;6.466;2023-06-26T15:32:17;25.10;1.00
21149;DHT22;10732;51.472;6.466;2023-06-26T15:34:42;24.90;99.90
21149;DHT22;10732;51.472;6.466;2023-06-26T15:37:08;25.00;1.00
21149;DHT22;10732;51.472;6.466;2023-06-26T15:39:33;25.10;1.00
21149;DHT22;10732;51.472;6.466;2023-06-26T15:41:59;24.90;1.00
21149;DHT22;10732;51.472;6.466;2023-06-26T15:44:24;24.90;1.00
21149;DHT22;10732;51.472;6.466;2023-06-26T15:46:50;25.00;1.00
21149;DHT22;10732;51.472;6.466;2023-06-26T15:49:16;24.70;1.00